createdAt,value
2019-01-21T00:00:03.075Z,-6.34
2019-01-21T00:02:31.050Z,-6.34
2019-01-21T00:04:58.998Z,-6.29
2019-01-21T00:07:28.038Z,-6.24
2019-01-21T00:09:55.793Z,-6.42
2019-01-21T00:12:23.444Z,-6.42
2019-01-21T00:14:51.174Z,-6.34
2019-01-21T00:17:22.403Z,-6.39
2019-01-21T00:19:48.756Z,-6.54
2019-01-21T00:22:16.734Z,-6.51
2019-01-21T00:24:44.365Z,-6.34
2019-01-21T00:27:12.362Z,-6.54
2019-01-21T00:29:40.346Z,-6.78
2019-01-21T00:32:08.303Z,-6.79
2019-01-21T00:34:36.274Z,-6.74
2019-01-21T00:37:04.246Z,-6.72
2019-01-21T00:39:32.212Z,-6.69
2019-01-21T00:42:00.181Z,-6.73
2019-01-21T00:44:27.823Z,-6.89
2019-01-21T00:46:55.725Z,-6.86
2019-01-21T00:49:23.687Z,-6.79
2019-01-21T00:51:51.650Z,-6.93
2019-01-21T00:54:19.620Z,-6.69
2019-01-21T00:56:47.584Z,-6.52
2019-01-21T00:59:15.231Z,-6.74
2019-01-21T01:01:42.874Z,-6.83
2019-01-21T01:04:10.778Z,-6.74
2019-01-21T01:06:38.423Z,-6.64
2019-01-21T01:09:06.410Z,-6.68
2019-01-21T01:11:34.378Z,-6.74
2019-01-21T01:14:02.662Z,-6.66
2019-01-21T01:16:30.297Z,-6.66
2019-01-21T01:18:58.285Z,-6.57
2019-01-21T01:21:26.264Z,-6.63
2019-01-21T01:23:54.227Z,-6.82
2019-01-21T01:26:22.197Z,-6.85
2019-01-21T01:28:49.841Z,-6.82
2019-01-21T01:31:17.477Z,-6.77
2019-01-21T01:33:45.393Z,-6.93
2019-01-21T01:36:13.030Z,-7.03
2019-01-21T01:38:40.671Z,-7.02
2019-01-21T01:41:08.582Z,-6.80
2019-01-21T01:43:36.549Z,-6.85
2019-01-21T01:46:04.523Z,-6.89
2019-01-21T01:48:32.509Z,-6.90
2019-01-21T01:51:00.144Z,-7.00
2019-01-21T01:53:28.158Z,-7.01
2019-01-21T01:55:56.090Z,-6.97
2019-01-21T01:58:24.066Z,-7.05
2019-01-21T02:00:51.717Z,-6.91
2019-01-21T02:03:19.696Z,-6.97
2019-01-21T02:05:47.331Z,-6.98
2019-01-21T02:08:15.634Z,-6.93
2019-01-21T02:10:43.604Z,-6.96
2019-01-21T02:13:11.246Z,-6.96
2019-01-21T02:15:38.883Z,-6.90
2019-01-21T02:18:06.801Z,-6.94
2019-01-21T02:20:34.766Z,-6.97
2019-01-21T02:23:02.732Z,-6.91
2019-01-21T02:25:30.384Z,-6.90
2019-01-21T02:27:58.367Z,-7.02
2019-01-21T02:30:26.088Z,-7.07
2019-01-21T02:32:53.723Z,-7.02
2019-01-21T02:35:21.968Z,-7.05
2019-01-21T02:37:49.939Z,-7.30
2019-01-21T02:40:17.909Z,-7.41
2019-01-21T02:42:45.874Z,-7.41
2019-01-21T02:45:13.854Z,-7.28
2019-01-21T02:47:41.487Z,-7.46
2019-01-21T02:50:09.413Z,-7.64
2019-01-21T02:52:37.048Z,-7.51
2019-01-21T02:55:05.028Z,-7.43
2019-01-21T02:57:32.991Z,-7.35
2019-01-21T03:00:00.957Z,-7.43
2019-01-21T03:02:28.919Z,-7.54
2019-01-21T03:04:56.906Z,-7.72
2019-01-21T03:07:24.855Z,-7.81
2019-01-21T03:09:52.492Z,-7.85
2019-01-21T03:12:20.127Z,-7.87
2019-01-21T03:14:48.053Z,-7.95
2019-01-21T03:17:16.018Z,-7.98
2019-01-21T03:19:43.991Z,-7.90
2019-01-21T03:22:11.620Z,-8.00
2019-01-21T03:24:39.620Z,-7.97
2019-01-21T03:27:07.254Z,-7.88
2019-01-21T03:29:34.890Z,-7.86
2019-01-21T03:32:02.906Z,-8.02
2019-01-21T03:34:30.550Z,-8.10
2019-01-21T03:36:58.454Z,-8.11
2019-01-21T03:39:26.086Z,-7.99
2019-01-21T03:41:54.074Z,-7.83
2019-01-21T03:44:22.044Z,-7.82
2019-01-21T03:46:50.115Z,-7.93
2019-01-21T03:49:17.762Z,-7.99
2019-01-21T03:51:45.652Z,-7.89
2019-01-21T03:54:13.300Z,-7.92
2019-01-21T03:56:40.936Z,-8.13
2019-01-21T03:59:08.843Z,-8.11
2019-01-21T04:01:36.472Z,-8.11
2019-01-21T04:04:04.119Z,-8.19
2019-01-21T04:06:32.030Z,-8.19
2019-01-21T04:09:00.005Z,-8.15
2019-01-21T04:11:27.635Z,-8.20
2019-01-21T04:13:55.344Z,-8.30
2019-01-21T04:16:22.998Z,-8.13
2019-01-21T04:18:50.959Z,-8.31
2019-01-21T04:21:18.613Z,-8.26
2019-01-21T04:23:46.589Z,-8.36
2019-01-21T04:26:14.564Z,-8.21
2019-01-21T04:28:42.836Z,-8.29
2019-01-21T04:31:10.803Z,-8.35
2019-01-21T04:33:38.774Z,-8.31
2019-01-21T04:36:06.758Z,-8.17
2019-01-21T04:38:34.394Z,-8.11
2019-01-21T04:41:02.375Z,-8.18
2019-01-21T04:43:30.445Z,-8.10
2019-01-21T04:45:58.417Z,-8.08
2019-01-21T04:48:32.852Z,-8.25
2019-01-21T04:50:55.747Z,-8.23
2019-01-21T04:53:23.660Z,-8.32
2019-01-21T04:55:51.628Z,-8.12
2019-01-21T04:58:19.600Z,-8.09
2019-01-21T05:00:47.568Z,-8.23
2019-01-21T05:03:15.562Z,-8.33
2019-01-21T05:05:43.508Z,-8.39
2019-01-21T05:08:11.476Z,-8.39
2019-01-21T05:10:39.654Z,-8.22
2019-01-21T05:13:07.617Z,-8.14
2019-01-21T05:15:35.264Z,-8.14
2019-01-21T05:18:02.904Z,-8.16
2019-01-21T05:20:30.813Z,-8.20
2019-01-21T05:22:58.446Z,-8.31
2019-01-21T05:25:26.776Z,-8.27
2019-01-21T05:27:54.720Z,-8.48
2019-01-21T05:30:22.361Z,-8.40
2019-01-21T05:32:49.996Z,-8.32
2019-01-21T05:35:17.911Z,-8.40
2019-01-21T05:37:45.897Z,-8.38
2019-01-21T05:40:14.159Z,-8.35
2019-01-21T05:42:42.145Z,-8.29
2019-01-21T05:45:10.101Z,-8.21
2019-01-21T05:47:38.086Z,-8.14
2019-01-21T05:50:06.045Z,-8.16
2019-01-21T05:52:33.670Z,-8.30
2019-01-21T05:55:01.675Z,-8.49
2019-01-21T05:57:29.638Z,-8.33
2019-01-21T05:59:57.610Z,-8.27
2019-01-21T06:02:25.586Z,-8.41
2019-01-21T06:04:53.546Z,-8.38
2019-01-21T06:07:21.517Z,-8.47
2019-01-21T06:09:49.455Z,-8.48
2019-01-21T06:12:17.099Z,-8.52
2019-01-21T06:14:45.015Z,-8.47
2019-01-21T06:17:12.658Z,-8.40
2019-01-21T06:19:40.646Z,-8.39
2019-01-21T06:22:08.619Z,-8.35
2019-01-21T06:24:36.252Z,-8.27
2019-01-21T06:27:04.247Z,-8.29
2019-01-21T06:29:32.220Z,-8.22
2019-01-21T06:32:00.184Z,-8.35
2019-01-21T06:34:27.819Z,-8.26
2019-01-21T06:36:55.459Z,-8.37
2019-01-21T06:39:23.100Z,-8.47
2019-01-21T06:41:50.743Z,-8.60
2019-01-21T06:44:18.702Z,-8.48
2019-01-21T06:46:46.677Z,-8.26
2019-01-21T06:49:14.647Z,-8.17
2019-01-21T06:51:42.616Z,-8.20
2019-01-21T06:54:10.249Z,-8.12
2019-01-21T06:56:38.142Z,-8.08
2019-01-21T06:59:05.779Z,-8.08
2019-01-21T07:01:33.497Z,-8.11
2019-01-21T07:04:01.439Z,-8.06
2019-01-21T07:06:29.092Z,-8.05
2019-01-21T07:08:57.070Z,-7.91
2019-01-21T07:11:25.038Z,-7.91
2019-01-21T07:13:53.008Z,-7.94
2019-01-21T07:16:21.288Z,-7.92
2019-01-21T07:18:49.255Z,-7.90
2019-01-21T07:21:17.225Z,-7.87
2019-01-21T07:23:44.855Z,-7.81
2019-01-21T07:26:13.317Z,-7.77
2019-01-21T07:28:41.237Z,-7.60
2019-01-21T07:31:09.202Z,-7.50
2019-01-21T07:33:37.179Z,-7.48
2019-01-21T07:36:05.149Z,-7.41
2019-01-21T07:38:33.113Z,-7.37
2019-01-21T07:41:00.759Z,-7.29
2019-01-21T07:43:28.646Z,-7.25
2019-01-21T07:45:56.613Z,-7.15
2019-01-21T07:48:24.585Z,-7.06
2019-01-21T07:50:52.551Z,-6.94
2019-01-21T07:53:20.181Z,-6.96
2019-01-21T07:55:47.819Z,-6.91
2019-01-21T07:58:15.748Z,-6.92
2019-01-21T08:00:43.713Z,-6.89
2019-01-21T08:03:11.365Z,-6.93
2019-01-21T08:05:39.350Z,-6.88
2019-01-21T08:08:07.317Z,-6.81
2019-01-21T08:10:35.287Z,-6.79
2019-01-21T08:13:03.260Z,-6.70
2019-01-21T08:15:31.535Z,-6.54
2019-01-21T08:17:59.180Z,-6.42
2019-01-21T08:20:27.177Z,-6.21
2019-01-21T08:22:55.140Z,-6.20
2019-01-21T08:25:22.770Z,-6.18
2019-01-21T08:27:50.762Z,-6.17
2019-01-21T08:30:18.397Z,-6.05
2019-01-21T08:32:46.395Z,-6.02
2019-01-21T08:35:14.368Z,-5.90
2019-01-21T08:37:42.357Z,-5.78
2019-01-21T08:40:10.307Z,-5.99
2019-01-21T08:42:38.279Z,-5.82
2019-01-21T08:45:06.241Z,-5.83
2019-01-21T08:47:34.218Z,-5.84
2019-01-21T08:50:02.188Z,-5.72
2019-01-21T08:52:30.165Z,-5.71
2019-01-21T08:54:58.122Z,-5.73
2019-01-21T08:57:26.094Z,-5.65
2019-01-21T08:59:53.729Z,-5.53
2019-01-21T09:02:21.723Z,-5.48
2019-01-21T09:04:49.700Z,-5.46
2019-01-21T09:07:17.344Z,-5.47
2019-01-21T09:09:44.973Z,-5.38
2019-01-21T09:12:12.987Z,-5.27
2019-01-21T09:14:40.958Z,-5.18
2019-01-21T09:17:08.927Z,-5.14
2019-01-21T09:19:37.339Z,-4.99
2019-01-21T09:22:05.488Z,-4.98
2019-01-21T09:24:33.450Z,-4.96
2019-01-21T09:27:01.418Z,-4.80
2019-01-21T09:29:29.389Z,-4.76
2019-01-21T09:31:57.361Z,-4.70
2019-01-21T09:34:24.990Z,-4.77
2019-01-21T09:36:52.902Z,-4.64
2019-01-21T09:39:20.548Z,-4.89
2019-01-21T09:41:48.177Z,-4.96
2019-01-21T09:44:16.091Z,-5.14
2019-01-21T09:46:43.885Z,-5.00
2019-01-21T09:49:11.826Z,-4.92
2019-01-21T09:51:39.885Z,-4.87
2019-01-21T09:54:07.863Z,-4.85
2019-01-21T09:56:35.498Z,-4.96
2019-01-21T09:59:03.490Z,-4.92
2019-01-21T10:01:31.463Z,-4.68
2019-01-21T10:03:59.137Z,-4.66
2019-01-21T10:06:27.094Z,-4.59
2019-01-21T10:08:54.755Z,-4.47
2019-01-21T10:11:22.456Z,-4.27
2019-01-21T10:13:50.383Z,-4.11
2019-01-21T10:16:18.356Z,-4.10
2019-01-21T10:18:46.328Z,-3.76
2019-01-21T10:21:14.310Z,-3.62
2019-01-21T10:23:41.957Z,-3.73
2019-01-21T10:26:09.603Z,-3.67
2019-01-21T10:28:37.247Z,-3.90
2019-01-21T10:31:04.886Z,-3.62
2019-01-21T10:33:34.115Z,-3.64
2019-01-21T10:36:02.111Z,-3.66
2019-01-21T10:38:29.756Z,-3.73
2019-01-21T10:40:57.742Z,-3.40
2019-01-21T10:43:25.819Z,-3.40
2019-01-21T10:45:53.787Z,-3.56
2019-01-21T10:48:21.811Z,-3.41
2019-01-21T10:50:49.456Z,-3.32
2019-01-21T10:53:17.132Z,-3.30
2019-01-21T10:55:45.052Z,-3.11
2019-01-21T10:58:13.022Z,-2.93
2019-01-21T11:00:40.664Z,-2.77
2019-01-21T11:03:08.309Z,-2.99
2019-01-21T11:05:35.947Z,-2.97
2019-01-21T11:08:03.589Z,-3.01
2019-01-21T11:10:31.236Z,-2.88
2019-01-21T11:12:59.199Z,-2.84
2019-01-21T11:15:27.171Z,-2.70
2019-01-21T11:17:54.817Z,-2.41
2019-01-21T11:20:22.820Z,-2.84
2019-01-21T11:22:50.774Z,-2.77
2019-01-21T11:25:18.737Z,-2.43
2019-01-21T11:27:46.707Z,-2.39
2019-01-21T11:30:14.683Z,-2.46
2019-01-21T11:32:42.648Z,-2.30
2019-01-21T11:35:10.290Z,-2.27
2019-01-21T11:37:38.020Z,-2.11
2019-01-21T11:40:05.958Z,-2.10
2019-01-21T11:42:33.914Z,-2.05
2019-01-21T11:45:01.545Z,-2.01
2019-01-21T11:47:29.542Z,-1.79
2019-01-21T11:49:57.188Z,-1.97
2019-01-21T11:52:25.191Z,-1.88
2019-01-21T11:54:53.146Z,-1.96
2019-01-21T11:57:20.782Z,-1.90
2019-01-21T11:59:48.425Z,-2.12
2019-01-21T12:02:16.337Z,-2.15
2019-01-21T12:04:44.001Z,-2.06
2019-01-21T12:07:11.647Z,-1.77
2019-01-21T12:09:39.291Z,-1.67
2019-01-21T12:12:06.926Z,-1.73
2019-01-21T12:14:34.854Z,-1.78
2019-01-21T12:17:02.824Z,-1.64
2019-01-21T12:19:30.810Z,-1.62
2019-01-21T12:21:58.766Z,-1.49
2019-01-21T12:24:26.777Z,-1.54
2019-01-21T12:26:54.820Z,-1.57
2019-01-21T12:29:22.772Z,-1.54
2019-01-21T12:31:50.745Z,-1.51
2019-01-21T12:34:18.720Z,-1.47
2019-01-21T12:36:46.363Z,-1.43
2019-01-21T12:39:14.349Z,-1.41
2019-01-21T12:41:42.313Z,-1.47
2019-01-21T12:44:10.288Z,-1.35
2019-01-21T12:46:37.931Z,-1.35
2019-01-21T12:49:05.646Z,-1.34
2019-01-21T12:51:33.587Z,-1.22
2019-01-21T12:54:01.547Z,-1.25
2019-01-21T12:56:29.518Z,-1.27
2019-01-21T12:58:57.151Z,-1.24
2019-01-21T13:01:25.152Z,-1.23
2019-01-21T13:03:53.121Z,-1.29
2019-01-21T13:06:21.091Z,-1.21
2019-01-21T13:08:48.741Z,-1.21
2019-01-21T13:11:16.722Z,-1.22
2019-01-21T13:13:44.692Z,-1.14
2019-01-21T13:16:12.659Z,-1.12
2019-01-21T13:18:40.304Z,-1.15
2019-01-21T13:21:07.946Z,-1.07
2019-01-21T13:23:35.857Z,-1.03
2019-01-21T13:26:03.495Z,-0.99
2019-01-21T13:28:31.487Z,-1.03
2019-01-21T13:30:59.460Z,-0.98
2019-01-21T13:33:27.427Z,-0.96
2019-01-21T13:35:55.393Z,-1.09
2019-01-21T13:38:23.369Z,-1.04
2019-01-21T13:40:51.330Z,-0.95
2019-01-21T13:43:18.967Z,-0.86
2019-01-21T13:45:46.862Z,-0.91
2019-01-21T13:48:14.499Z,-0.87
2019-01-21T13:50:42.146Z,-0.94
2019-01-21T13:53:10.055Z,-0.94
2019-01-21T13:55:37.716Z,-0.90
2019-01-21T13:58:05.359Z,-0.90
2019-01-21T14:00:33.000Z,-0.92
2019-01-21T14:03:00.924Z,-0.99
2019-01-21T14:05:31.091Z,-0.99
2019-01-21T14:07:58.176Z,-0.99
2019-01-21T14:10:26.147Z,-1.00
2019-01-21T14:12:53.818Z,-0.99
2019-01-21T14:15:21.454Z,-1.03
2019-01-21T14:17:49.337Z,-1.05
2019-01-21T14:20:17.290Z,-1.07
2019-01-21T14:22:44.936Z,-1.11
2019-01-21T14:25:12.838Z,-1.02
2019-01-21T14:27:40.471Z,-1.06
2019-01-21T14:30:08.111Z,-1.09
2019-01-21T14:32:36.139Z,-1.12
2019-01-21T14:35:04.103Z,-1.23
2019-01-21T14:37:31.732Z,-1.29
2019-01-21T14:39:59.378Z,-1.34
2019-01-21T14:42:27.299Z,-1.38
2019-01-21T14:44:54.938Z,-1.40
2019-01-21T14:47:22.933Z,-1.43
2019-01-21T14:49:50.578Z,-1.50
2019-01-21T14:52:18.562Z,-1.58
2019-01-21T14:54:46.568Z,-1.61
2019-01-21T14:57:14.525Z,-1.64
2019-01-21T14:59:42.470Z,-1.77
2019-01-21T15:02:10.112Z,-1.87
2019-01-21T15:04:38.043Z,-1.95
2019-01-21T15:07:05.670Z,-1.94
2019-01-21T15:09:33.458Z,-2.03
2019-01-21T15:12:01.510Z,-2.15
2019-01-21T15:14:29.170Z,-2.28
2019-01-21T15:16:57.150Z,-2.25
2019-01-21T15:19:25.113Z,-2.29
2019-01-21T15:21:53.103Z,-2.28
2019-01-21T15:24:21.073Z,-2.29
2019-01-21T15:26:49.003Z,-2.41
2019-01-21T15:29:16.992Z,-2.38
2019-01-21T15:31:44.698Z,-2.41
2019-01-21T15:34:12.519Z,-2.46
2019-01-21T15:36:40.486Z,-2.39
2019-01-21T15:39:08.203Z,-2.41
2019-01-21T15:41:36.111Z,-2.50
2019-01-21T15:44:03.820Z,-2.63
2019-01-21T15:46:31.490Z,-2.64
2019-01-21T15:48:59.402Z,-2.68
2019-01-21T15:51:27.393Z,-2.72
2019-01-21T15:53:55.341Z,-2.84
2019-01-21T15:56:23.315Z,-2.86
2019-01-21T15:58:50.958Z,-2.95
2019-01-21T16:01:19.046Z,-3.03
2019-01-21T16:03:46.681Z,-3.15
2019-01-21T16:06:14.676Z,-3.15
2019-01-21T16:08:42.323Z,-3.16
2019-01-21T16:11:10.319Z,-3.13
2019-01-21T16:13:38.283Z,-3.15
2019-01-21T16:16:05.925Z,-3.02
2019-01-21T16:18:33.910Z,-3.09
2019-01-21T16:21:01.891Z,-3.13
2019-01-21T16:23:29.851Z,-3.14
2019-01-21T16:25:57.816Z,-3.11
2019-01-21T16:28:25.453Z,-3.17
2019-01-21T16:30:53.104Z,-3.24
2019-01-21T16:33:21.024Z,-3.24
2019-01-21T16:35:48.980Z,-3.46
2019-01-21T16:38:17.829Z,-2.29
2019-01-21T16:40:45.760Z,-1.52
2019-01-21T16:43:13.720Z,-2.39
2019-01-21T16:45:41.388Z,-2.80
2019-01-21T16:48:09.446Z,-2.37
2019-01-21T16:50:37.416Z,-2.02
2019-01-21T16:53:05.382Z,-2.19
2019-01-21T16:55:33.098Z,-2.70
2019-01-21T16:58:00.738Z,-2.95
2019-01-21T17:00:28.677Z,-1.85
2019-01-21T17:02:56.649Z,-1.96
2019-01-21T17:05:24.365Z,-2.75
2019-01-21T17:07:52.278Z,-3.13
2019-01-21T17:10:19.921Z,-3.34
2019-01-21T17:12:47.684Z,-3.47
2019-01-21T17:15:15.694Z,-3.12
2019-01-21T17:17:44.387Z,-3.36
2019-01-21T17:20:12.090Z,-3.14
2019-01-21T17:22:40.010Z,-2.64
2019-01-21T17:25:07.967Z,-2.63
2019-01-21T17:27:35.934Z,-2.77
2019-01-21T17:30:03.901Z,-2.53
2019-01-21T17:32:31.554Z,-2.50
2019-01-21T17:34:59.536Z,-2.99
2019-01-21T17:37:27.510Z,-3.37
2019-01-21T17:39:55.485Z,-3.24
2019-01-21T17:42:23.442Z,-3.18
2019-01-21T17:44:51.441Z,-3.14
2019-01-21T17:47:19.093Z,-3.10
2019-01-21T17:49:46.726Z,-3.14
2019-01-21T17:52:14.380Z,-3.20
2019-01-21T17:54:42.374Z,-3.51
2019-01-21T17:57:12.010Z,-3.33
2019-01-21T17:59:40.154Z,-3.08
2019-01-21T18:02:07.803Z,-3.45
2019-01-21T18:04:35.800Z,-3.17
2019-01-21T18:07:03.752Z,-3.57
2019-01-21T18:09:31.399Z,-3.94
2019-01-21T18:11:59.052Z,-4.04
2019-01-21T18:14:27.362Z,-3.79
2019-01-21T18:16:55.325Z,-3.55
2019-01-21T18:19:23.296Z,-3.36
2019-01-21T18:21:51.268Z,-3.55
2019-01-21T18:24:19.236Z,-3.65
2019-01-21T18:26:46.877Z,-3.60
2019-01-21T18:29:14.513Z,-3.84
2019-01-21T18:31:42.424Z,-3.95
2019-01-21T18:34:10.396Z,-4.04
2019-01-21T18:36:38.367Z,-3.70
2019-01-21T18:39:06.338Z,-3.67
2019-01-21T18:41:33.984Z,-3.80
2019-01-21T18:44:01.621Z,-3.74
2019-01-21T18:46:29.527Z,-3.69
2019-01-21T18:48:57.180Z,-3.63
2019-01-21T18:51:25.158Z,-3.78
2019-01-21T18:53:53.138Z,-3.52
2019-01-21T18:56:20.793Z,-3.58
2019-01-21T18:58:48.758Z,-3.60
2019-01-21T19:01:16.409Z,-3.81
2019-01-21T19:03:44.048Z,-3.50
2019-01-21T19:06:12.054Z,-3.53
2019-01-21T19:08:40.025Z,-3.52
2019-01-21T19:11:07.998Z,-3.48
2019-01-21T19:13:35.637Z,-3.46
2019-01-21T19:16:03.626Z,-3.60
2019-01-21T19:18:31.593Z,-3.49
2019-01-21T19:20:59.234Z,-3.54
2019-01-21T19:23:27.226Z,-3.49
2019-01-21T19:25:55.214Z,-3.57
2019-01-21T19:28:23.165Z,-3.53
2019-01-21T19:30:50.809Z,-3.49
2019-01-21T19:33:18.805Z,-3.50
2019-01-21T19:35:46.768Z,-3.75
2019-01-21T19:38:14.423Z,-3.73
2019-01-21T19:40:42.061Z,-3.68
2019-01-21T19:43:10.062Z,-3.68
2019-01-21T19:45:37.721Z,-3.62
2019-01-21T19:48:05.375Z,-3.71
2019-01-21T19:50:33.360Z,-3.78
2019-01-21T19:53:01.330Z,-3.76
2019-01-21T19:55:29.300Z,-3.65
2019-01-21T19:57:57.268Z,-3.59
2019-01-21T20:00:24.915Z,-3.76
2019-01-21T20:02:52.902Z,-4.08
2019-01-21T20:05:20.869Z,-4.45
2019-01-21T20:07:48.844Z,-4.62
2019-01-21T20:10:16.803Z,-4.71
2019-01-21T20:12:44.780Z,-4.62
2019-01-21T20:15:12.750Z,-4.64
2019-01-21T20:17:40.471Z,-4.81
2019-01-21T20:20:08.379Z,-4.86
2019-01-21T20:22:36.365Z,-4.66
2019-01-21T20:25:04.329Z,-4.52
2019-01-21T20:27:32.314Z,-4.80
2019-01-21T20:30:00.259Z,-4.44
2019-01-21T20:32:27.910Z,-4.45
2019-01-21T20:34:55.558Z,-4.40
2019-01-21T20:37:23.559Z,-4.35
2019-01-21T20:39:51.715Z,-4.30
2019-01-21T20:42:19.706Z,-4.46
2019-01-21T20:44:47.405Z,-4.60
2019-01-21T20:47:15.428Z,-4.40
2019-01-21T20:49:43.145Z,-4.51
2019-01-21T20:52:14.180Z,-4.53
2019-01-21T20:54:40.773Z,-4.74
2019-01-21T20:57:08.745Z,-4.94
2019-01-21T20:59:36.721Z,-4.76
2019-01-21T21:02:04.690Z,-4.53
2019-01-21T21:04:32.669Z,-4.57
2019-01-21T21:07:00.617Z,-4.71
2019-01-21T21:09:28.260Z,-4.70
2019-01-21T21:11:55.907Z,-4.82
2019-01-21T21:14:23.557Z,-4.72
2019-01-21T21:16:51.474Z,-4.46
2019-01-21T21:19:19.445Z,-4.54
2019-01-21T21:21:47.088Z,-4.55
2019-01-21T21:24:15.093Z,-4.69
2019-01-21T21:26:43.046Z,-4.81
2019-01-21T21:29:11.035Z,-4.72
2019-01-21T21:31:38.986Z,-4.71
2019-01-21T21:34:06.972Z,-4.74
2019-01-21T21:36:35.234Z,-4.84
2019-01-21T21:39:04.005Z,-4.81
2019-01-21T21:41:32.010Z,-4.71
2019-01-21T21:43:59.982Z,-4.77
2019-01-21T21:46:27.926Z,-4.67
2019-01-21T21:48:55.573Z,-4.78
2019-01-21T21:51:23.215Z,-4.73
2019-01-21T21:53:51.117Z,-4.64
2019-01-21T21:56:19.093Z,-4.50
2019-01-21T21:58:46.744Z,-4.36
2019-01-21T22:01:14.432Z,-4.42
2019-01-21T22:03:42.400Z,-4.44
2019-01-21T22:06:10.373Z,-4.50
2019-01-21T22:08:38.019Z,-4.71
2019-01-21T22:11:05.659Z,-4.89
2019-01-21T22:13:33.368Z,-4.99
2019-01-21T22:16:01.000Z,-5.17
2019-01-21T22:18:29.198Z,-4.96
2019-01-21T22:20:57.144Z,-4.97
2019-01-21T22:23:24.794Z,-4.93
2019-01-21T22:25:52.781Z,-4.96
2019-01-21T22:28:20.754Z,-5.02
2019-01-21T22:30:48.718Z,-4.99
2019-01-21T22:33:16.896Z,-4.93
2019-01-21T22:35:44.865Z,-5.06
2019-01-21T22:38:12.836Z,-5.11
2019-01-21T22:40:40.800Z,-5.04
2019-01-21T22:43:08.447Z,-5.08
2019-01-21T22:45:36.092Z,-5.08
2019-01-21T22:48:04.115Z,-5.08
2019-01-21T22:50:32.066Z,-5.01
2019-01-21T22:53:00.041Z,-5.05
2019-01-21T22:55:28.023Z,-5.23
2019-01-21T22:57:55.975Z,-5.13
2019-01-21T23:00:23.903Z,-5.25
2019-01-21T23:02:51.548Z,-5.38
2019-01-21T23:05:19.479Z,-5.41
2019-01-21T23:07:47.444Z,-5.40
2019-01-21T23:10:15.101Z,-5.42
2019-01-21T23:12:43.080Z,-5.43
2019-01-21T23:15:11.357Z,-5.38
2019-01-21T23:17:38.993Z,-5.34
2019-01-21T23:20:06.985Z,-5.44
2019-01-21T23:22:34.954Z,-5.41
2019-01-21T23:25:02.921Z,-5.47
2019-01-21T23:27:30.565Z,-5.45
2019-01-21T23:29:58.572Z,-5.34
2019-01-21T23:32:26.215Z,-5.33
2019-01-21T23:34:53.872Z,-5.42
2019-01-21T23:37:21.851Z,-5.39
2019-01-21T23:39:49.820Z,-5.42
2019-01-21T23:42:17.793Z,-5.42
2019-01-21T23:44:45.759Z,-5.26
2019-01-21T23:47:13.749Z,-5.28
2019-01-21T23:49:41.394Z,-5.47
2019-01-21T23:52:09.098Z,-5.40
2019-01-21T23:54:36.754Z,-5.48
2019-01-21T23:57:04.706Z,-5.38
2019-01-21T23:59:32.351Z,-5.35
